Time;durP1;ratioP1;P1;durP2;ratioP2;P2;SDS_P1;SDS_P2;PMS_P1;PMS_P2;Temp;Humidity;BMP_temperature;BMP_pressure;BME280_temperature;BME280_humidity;BME280_pressure;Samples;Min_cycle;Max_cycle;Signal;HPM_P1;HPM_P2
2023/12/19 00:01:35;;;;;;;5.20;5.10;;;5.00;99.90;;;;;;5070380;28;20787;-70
2023/12/19 00:04:02;;;;;;;5.20;5.10;;;5.00;99.90;;;;;;5060210;28;20817;-72
2023/12/19 00:06:31;;;;;;;4.80;4.80;;;5.00;99.90;;;;;;5065000;28;20458;-71
2023/12/19 00:08:58;;;;;;;5.23;5.13;;;5.00;99.90;;;;;;5062102;28;20455;-72
2023/12/19 00:11:25;;;;;;;5.20;5.10;;;5.00;99.90;;;;;;5069001;28;20456;-72
2023/12/19 00:13:52;;;;;;;5.13;5.03;;;5.10;99.90;;;;;;5067057;28;20552;-72
2023/12/19 00:16:19;;;;;;;5.00;5.00;;;5.00;99.90;;;;;;5065815;28;20820;-71
2023/12/19 00:18:46;;;;;;;5.20;5.10;;;5.00;99.90;;;;;;5066930;28;20466;-71
2023/12/19 00:21:13;;;;;;;4.87;4.87;;;5.00;99.90;;;;;;5068365;28;20470;-71
2023/12/19 00:23:43;;;;;;;4.60;4.60;;;5.00;99.90;;;;;;5070129;28;20799;-71
2023/12/19 00:26:12;;;;;;;5.50;5.40;;;5.00;99.90;;;;;;5061047;28;20459;-72
2023/12/19 00:28:39;;;;;;;5.37;5.27;;;5.10;99.90;;;;;;5068058;28;20456;-72
2023/12/19 00:31:07;;;;;;;5.13;5.03;;;5.10;99.90;;;;;;5064982;28;20700;-72
2023/12/19 00:33:34;;;;;;;4.90;4.90;;;5.10;99.90;;;;;;5069885;28;20456;-71
2023/12/19 00:36:01;;;;;;;5.00;5.00;;;5.10;99.90;;;;;;5070154;28;20467;-71
2023/12/19 00:38:28;;;;;;;5.60;5.50;;;5.10;99.90;;;;;;5069537;28;20506;-71
2023/12/19 00:40:56;;;;;;;5.70;5.60;;;5.20;99.90;;;;;;5060290;28;20498;-72
2023/12/19 00:43:23;;;;;;;5.50;5.40;;;5.20;99.90;;;;;;5069174;28;21001;-72
2023/12/19 00:45:50;;;;;;;5.63;5.53;;;5.10;99.90;;;;;;5060776;28;20550;-71
2023/12/19 00:48:17;;;;;;;5.00;5.00;;;5.20;99.90;;;;;;5065157;28;20468;-72
2023/12/19 00:50:44;;;;;;;5.57;5.47;;;5.10;99.90;;;;;;5061991;28;20543;-71
2023/12/19 00:53:12;;;;;;;5.20;5.10;;;5.20;99.90;;;;;;5069533;28;20870;-72
2023/12/19 00:55:40;;;;;;;5.07;5.07;;;5.20;99.90;;;;;;5067057;28;20454;-72
2023/12/19 00:58:08;;;;;;;4.60;4.60;;;5.10;99.90;;;;;;5059613;28;20783;-72
2023/12/19 01:00:35;;;;;;;5.13;5.03;;;5.10;99.90;;;;;;5063808;28;20476;-72
2023/12/19 01:03:02;;;;;;;4.57;4.57;;;5.10;99.90;;;;;;5062475;28;20456;-72
2023/12/19 01:05:30;;;;;;;4.97;4.97;;;5.20;99.90;;;;;;5057099;28;20458;-72
2023/12/19 01:07:57;;;;;;;4.90;4.90;;;5.20;99.90;;;;;;5068077;28;20451;-71
2023/12/19 01:10:24;;;;;;;4.50;4.50;;;5.20;99.90;;;;;;5065925;28;20463;-71
2023/12/19 01:12:51;;;;;;;4.07;4.07;;;5.20;99.90;;;;;;5062176;28;20463;-71
2023/12/19 01:15:20;;;;;;;4.60;4.60;;;5.10;99.90;;;;;;5066783;28;20466;-71
2023/12/19 01:17:46;;;;;;;4.30;4.30;;;5.20;99.90;;;;;;5060871;28;20769;-71
2023/12/19 01:20:15;;;;;;;4.70;4.70;;;5.20;99.90;;;;;;5069374;28;20829;-71
2023/12/19 01:22:43;;;;;;;5.27;5.17;;;5.20;99.90;;;;;;5061464;28;20463;-71
2023/12/19 01:25:10;;;;;;;5.20;5.10;;;5.30;99.90;;;;;;5060616;28;20495;-71
2023/12/19 01:27:37;;;;;;;5.27;5.17;;;5.30;99.90;;;;;;5063153;28;20847;-71
2023/12/19 01:30:04;;;;;;;5.30;5.20;;;5.30;99.90;;;;;;5060683;28;21051;-71
2023/12/19 01:32:33;;;;;;;5.70;5.60;;;5.40;99.90;;;;;;5062999;28;20570;-71
2023/12/19 01:34:59;;;;;;;6.30;6.20;;;5.40;99.90;;;;;;5067674;28;20738;-71
2023/12/19 01:37:27;;;;;;;5.57;5.47;;;5.50;99.90;;;;;;5056542;28;20474;-71
2023/12/19 01:39:53;;;;;;;5.90;5.80;;;5.40;99.90;;;;;;5059062;28;20921;-71
2023/12/19 01:42:21;;;;;;;6.00;5.90;;;5.50;99.90;;;;;;5063868;28;21000;-71
2023/12/19 01:45:07;;;;;;;5.90;5.80;;;5.50;99.90;;;;;;5068429;28;20491;-71
2023/12/19 01:47:36;;;;;;;5.40;5.30;;;5.60;99.90;;;;;;5057017;28;20463;-71
2023/12/19 01:50:03;;;;;;;6.00;5.90;;;5.60;99.90;;;;;;5065026;28;20453;-71
2023/12/19 01:52:30;;;;;;;5.80;5.70;;;5.50;99.90;;;;;;5067556;28;20940;-72
2023/12/19 01:54:58;;;;;;;5.50;5.40;;;5.60;99.90;;;;;;5046411;28;21059;-71
2023/12/19 01:57:26;;;;;;;5.90;5.80;;;5.60;99.90;;;;;;5066820;28;20451;-71
2023/12/19 01:59:53;;;;;;;5.63;5.53;;;5.70;99.90;;;;;;5054975;28;20466;-71
2023/12/19 02:02:20;;;;;;;6.60;6.50;;;5.70;99.90;;;;;;5067428;28;20480;-70
2023/12/19 02:04:50;;;;;;;5.20;5.10;;;5.70;99.90;;;;;;5060975;28;20875;-71
2023/12/19 02:07:17;;;;;;;4.70;4.70;;;5.50;99.90;;;;;;5070003;28;20451;-71
2023/12/19 02:09:44;;;;;;;5.33;5.23;;;5.50;99.90;;;;;;5074302;28;20454;-71
2023/12/19 02:12:12;;;;;;;4.87;4.87;;;5.40;99.90;;;;;;5062888;28;20459;-71
2023/12/19 02:14:39;;;;;;;5.70;5.60;;;5.50;99.90;;;;;;5056519;28;20462;-71
2023/12/19 02:17:08;;;;;;;5.50;5.40;;;5.50;99.90;;;;;;5067663;28;20517;-71
2023/12/19 02:19:44;;;;;;;5.50;5.40;;;5.60;99.90;;;;;;5060655;28;20469;-71
2023/12/19 02:22:13;;;;;;;5.30;5.20;;;5.60;99.90;;;;;;5063277;28;20462;-71
2023/12/19 02:24:42;;;;;;;5.27;5.17;;;5.60;99.90;;;;;;5066623;28;20692;-71
2023/12/19 02:27:10;;;;;;;5.00;5.00;;;5.60;99.90;;;;;;5061224;28;20492;-71
2023/12/19 02:29:37;;;;;;;5.43;5.33;;;5.60;99.90;;;;;;5068048;28;20450;-71
2023/12/19 02:32:04;;;;;;;5.20;5.10;;;5.60;99.90;;;;;;5060475;28;20479;-71
2023/12/19 02:34:31;;;;;;;4.60;4.60;;;5.70;99.90;;;;;;5064837;28;20458;-71
2023/12/19 02:36:58;;;;;;;4.60;4.60;;;5.60;99.90;;;;;;5064747;28;20496;-71
2023/12/19 02:39:25;;;;;;;4.57;4.57;;;5.60;99.90;;;;;;5058433;28;20462;-71
2023/12/19 02:41:53;;;;;;;4.60;4.60;;;5.60;99.90;;;;;;5068162;28;20467;-71
2023/12/19 02:44:20;;;;;;;5.00;5.00;;;5.70;99.90;;;;;;5060343;28;20475;-72
2023/12/19 02:46:47;;;;;;;5.40;5.30;;;5.70;99.90;;;;;;5057401;28;20938;-72
2023/12/19 02:49:16;;;;;;;5.30;5.20;;;5.80;99.90;;;;;;5063868;28;20452;-71
2023/12/19 02:51:43;;;;;;;5.10;5.00;;;5.80;99.90;;;;;;5064463;28;20480;-72
2023/12/19 02:54:11;;;;;;;4.70;4.70;;;5.80;99.90;;;;;;5060789;28;20834;-72
2023/12/19 02:56:37;;;;;;;4.93;4.93;;;5.80;99.90;;;;;;5058606;28;21012;-72
2023/12/19 02:59:05;;;;;;;4.77;4.77;;;5.80;99.90;;;;;;5065879;28;20451;-71
2023/12/19 03:01:32;;;;;;;4.70;4.70;;;5.80;99.90;;;;;;5065969;28;20815;-71
2023/12/19 03:03:59;;;;;;;5.00;5.00;;;5.80;99.90;;;;;;5067590;28;20487;-72
2023/12/19 03:06:26;;;;;;;4.70;4.70;;;5.80;99.90;;;;;;5062824;28;20466;-71
2023/12/19 03:08:57;;;;;;;4.60;4.60;;;5.80;99.90;;;;;;5056509;28;20455;-72
2023/12/19 03:11:24;;;;;;;5.50;5.40;;;5.80;99.90;;;;;;5066956;28;20516;-72
2023/12/19 03:13:51;;;;;;;5.73;5.63;;;5.90;99.90;;;;;;5059729;28;20521;-72
2023/12/19 03:16:19;;;;;;;5.10;5.00;;;6.00;99.90;;;;;;5061475;28;20538;-72
2023/12/19 03:18:45;;;;;;;5.90;5.80;;;6.00;99.90;;;;;;5067200;28;20895;-72
2023/12/19 03:21:12;;;;;;;5.20;5.10;;;6.00;99.90;;;;;;5062604;28;20551;-72
2023/12/19 03:23:39;;;;;;;5.83;5.73;;;6.00;99.90;;;;;;5063030;28;20228;-72
2023/12/19 03:26:07;;;;;;;4.53;4.53;;;6.00;99.90;;;;;;5053855;28;20556;-71
2023/12/19 03:28:35;;;;;;;5.27;5.17;;;6.00;99.90;;;;;;5062761;28;20493;-72
2023/12/19 03:31:02;;;;;;;5.27;5.20;;;6.00;99.90;;;;;;5049914;28;20475;-71
2023/12/19 03:33:31;;;;;;;5.17;5.07;;;6.00;99.90;;;;;;5060300;28;20468;-71
2023/12/19 03:35:57;;;;;;;5.43;5.33;;;6.00;99.90;;;;;;5061849;28;20554;-71
2023/12/19 03:38:24;;;;;;;5.40;5.30;;;6.00;99.90;;;;;;5066859;28;20470;-71
2023/12/19 03:40:51;;;;;;;5.13;5.03;;;6.00;99.90;;;;;;5054432;28;20535;-69
2023/12/19 03:43:18;;;;;;;5.67;5.57;;;6.10;99.90;;;;;;5056044;28;20487;-72
2023/12/19 03:45:44;;;;;;;5.70;5.60;;;6.10;99.90;;;;;;5059517;28;20873;-72
2023/12/19 03:48:11;;;;;;;5.37;5.27;;;6.10;99.90;;;;;;5066443;28;20495;-72
2023/12/19 03:50:39;;;;;;;6.33;6.23;;;6.20;99.90;;;;;;5062184;28;20469;-72
2023/12/19 03:53:06;;;;;;;6.03;5.93;;;6.20;99.90;;;;;;5060349;28;20464;-70
2023/12/19 03:55:33;;;;;;;5.97;5.87;;;6.30;99.90;;;;;;5056451;28;20455;-70
2023/12/19 03:58:00;;;;;;;6.60;6.50;;;6.30;99.90;;;;;;5054034;28;20451;-70
2023/12/19 04:00:26;;;;;;;7.30;7.20;;;6.30;99.90;;;;;;5066311;28;20914;-70
2023/12/19 04:02:53;;;;;;;7.70;7.60;;;6.30;99.90;;;;;;5066630;28;20455;-70
2023/12/19 04:05:20;;;;;;;8.00;7.90;;;6.30;99.90;;;;;;5070367;28;21123;-70
2023/12/19 04:07:48;;;;;;;7.57;7.47;;;6.40;99.90;;;;;;5067822;28;20501;-69
2023/12/19 04:10:15;;;;;;;8.07;7.97;;;6.30;99.90;;;;;;5062656;28;20479;-70
2023/12/19 04:12:42;;;;;;;8.73;8.63;;;6.30;99.90;;;;;;5066787;28;20476;-71
2023/12/19 04:15:10;;;;;;;8.67;8.57;;;6.30;99.90;;;;;;5064634;28;20864;-70
2023/12/19 04:17:38;;;;;;;8.73;8.63;;;6.40;99.90;;;;;;5066712;28;20468;-71
2023/12/19 04:20:05;;;;;;;7.80;7.70;;;6.40;99.90;;;;;;5065573;28;20454;-70
2023/12/19 04:22:32;;;;;;;8.00;7.90;;;6.30;99.90;;;;;;5063539;28;20888;-71
2023/12/19 04:25:01;;;;;;;8.10;8.00;;;6.30;99.90;;;;;;5069694;28;20494;-71
2023/12/19 04:27:29;;;;;;;7.60;7.50;;;6.40;99.90;;;;;;5063687;28;20463;-71
2023/12/19 04:29:56;;;;;;;7.60;7.50;;;6.40;99.90;;;;;;5063888;28;20593;-71
2023/12/19 04:32:23;;;;;;;7.53;7.43;;;6.40;99.90;;;;;;5061828;28;20886;-70
2023/12/19 04:34:50;;;;;;;6.23;6.13;;;6.40;99.90;;;;;;5065954;28;20469;-70
2023/12/19 04:37:19;;;;;;;6.70;6.60;;;6.30;99.90;;;;;;5065706;28;20953;-71
2023/12/19 04:39:46;;;;;;;7.20;7.10;;;6.30;99.90;;;;;;5067440;28;20483;-70
2023/12/19 04:42:17;;;;;;;5.73;5.63;;;6.40;99.90;;;;;;5062371;28;20497;-70
2023/12/19 04:44:44;;;;;;;6.17;6.07;;;6.40;99.90;;;;;;5063191;28;20534;-71
2023/12/19 04:47:11;;;;;;;6.30;6.20;;;6.40;99.90;;;;;;5068106;28;20510;-71
2023/12/19 04:49:39;;;;;;;6.80;6.70;;;6.50;99.90;;;;;;5067813;28;20459;-70
2023/12/19 04:52:06;;;;;;;7.20;7.10;;;6.50;99.90;;;;;;5057479;28;20464;-71
2023/12/19 04:54:33;;;;;;;6.90;6.80;;;6.60;99.90;;;;;;5065088;28;20467;-71
2023/12/19 04:57:00;;;;;;;6.70;6.60;;;6.60;99.90;;;;;;5063406;28;21059;-71
2023/12/19 04:59:31;;;;;;;6.67;6.57;;;6.60;99.90;;;;;;5062734;28;20455;-71
2023/12/19 05:01:58;;;;;;;6.27;6.17;;;6.60;99.90;;;;;;5060464;28;22053;-71
2023/12/19 05:04:24;;;;;;;6.17;6.07;;;6.60;99.90;;;;;;5064718;28;20947;-71
2023/12/19 05:06:51;;;;;;;5.67;5.57;;;6.60;99.90;;;;;;5068333;28;20882;-70
2023/12/19 05:09:20;;;;;;;6.03;5.93;;;6.60;99.90;;;;;;5061244;28;21038;-71
2023/12/19 05:11:47;;;;;;;6.07;5.97;;;6.60;99.90;;;;;;5062557;28;20459;-70
2023/12/19 05:14:14;;;;;;;5.90;5.80;;;6.60;99.90;;;;;;5065672;28;20454;-70
2023/12/19 05:16:43;;;;;;;5.77;5.67;;;6.50;99.90;;;;;;5064924;28;20448;-72
2023/12/19 05:19:10;;;;;;;5.90;5.80;;;6.60;99.90;;;;;;5056600;28;20518;-71
2023/12/19 05:21:41;;;;;;;5.77;5.67;;;6.60;99.90;;;;;;5062864;28;20472;-71
2023/12/19 05:24:09;;;;;;;6.00;5.90;;;6.60;99.90;;;;;;5061045;28;20502;-71
2023/12/19 05:26:36;;;;;;;5.47;5.37;;;6.60;99.90;;;;;;5067302;28;20529;-70
2023/12/19 05:29:03;;;;;;;5.37;5.27;;;6.60;99.90;;;;;;5069047;28;20443;-70
2023/12/19 05:31:30;;;;;;;5.67;5.57;;;6.70;99.90;;;;;;5061439;28;20837;-70
2023/12/19 05:33:59;;;;;;;5.60;5.50;;;6.70;99.90;;;;;;5069026;28;20451;-70
2023/12/19 05:36:26;;;;;;;5.33;5.23;;;6.70;99.90;;;;;;5062265;28;20472;-71
2023/12/19 05:38:52;;;;;;;5.50;5.40;;;6.70;99.90;;;;;;5065496;28;20453;-70
2023/12/19 05:41:19;;;;;;;5.13;5.03;;;6.60;99.90;;;;;;5061848;28;21040;-70
2023/12/19 05:43:46;;;;;;;5.30;5.20;;;6.60;99.90;;;;;;5067320;28;20463;-70
2023/12/19 05:46:15;;;;;;;5.50;5.40;;;6.60;99.90;;;;;;5062323;28;20491;-70
2023/12/19 05:48:42;;;;;;;5.20;5.10;;;6.60;99.90;;;;;;5055894;28;20547;-71
2023/12/19 05:51:10;;;;;;;5.70;5.60;;;6.60;99.90;;;;;;5061283;28;20945;-71
2023/12/19 05:53:38;;;;;;;5.93;5.83;;;6.70;99.90;;;;;;5067243;28;20900;-71
2023/12/19 05:56:05;;;;;;;5.43;5.33;;;6.70;99.90;;;;;;5061074;28;20477;-71
2023/12/19 05:58:33;;;;;;;5.37;5.27;;;6.70;99.90;;;;;;5066844;28;20487;-71
2023/12/19 06:01:00;;;;;;;5.73;5.63;;;6.70;99.90;;;;;;5061603;28;20456;-70
2023/12/19 06:03:28;;;;;;;5.80;5.70;;;6.70;99.90;;;;;;5068359;28;20810;-71
2023/12/19 06:05:55;;;;;;;5.10;5.03;;;6.70;99.90;;;;;;5058945;28;20870;-71
2023/12/19 06:08:24;;;;;;;6.43;6.33;;;6.80;99.90;;;;;;5068958;28;20949;-71
2023/12/19 06:10:52;;;;;;;5.63;5.53;;;6.80;99.90;;;;;;5058466;28;20495;-71
2023/12/19 06:13:20;;;;;;;6.13;6.03;;;6.80;99.90;;;;;;5067848;28;20455;-71
2023/12/19 06:15:48;;;;;;;6.07;5.97;;;6.80;99.90;;;;;;5067705;28;20964;-71
2023/12/19 06:18:16;;;;;;;6.30;6.20;;;6.80;99.90;;;;;;5056780;28;20832;-71
2023/12/19 06:20:43;;;;;;;6.20;6.10;;;6.80;99.90;;;;;;5057355;28;20963;-71
2023/12/19 06:23:10;;;;;;;5.87;5.77;;;6.80;99.90;;;;;;5057341;28;20901;-71
2023/12/19 06:25:39;;;;;;;6.37;6.27;;;6.80;99.90;;;;;;5064684;28;20497;-70
2023/12/19 06:28:07;;;;;;;6.80;6.70;;;6.80;99.90;;;;;;5065980;28;20443;-71
2023/12/19 06:30:33;;;;;;;6.40;6.30;;;6.80;99.90;;;;;;5060942;28;20587;-71
2023/12/19 06:33:01;;;;;;;6.70;6.60;;;6.80;99.90;;;;;;5064461;28;20463;-71
2023/12/19 06:35:29;;;;;;;6.83;6.73;;;6.70;99.90;;;;;;5061271;28;21149;-70
2023/12/19 06:37:55;;;;;;;6.37;6.27;;;6.80;99.90;;;;;;5063176;28;20483;-71
2023/12/19 06:40:23;;;;;;;6.83;6.73;;;6.80;99.90;;;;;;5066283;28;20452;-70
2023/12/19 06:42:53;;;;;;;6.63;6.53;;;6.80;99.90;;;;;;5055741;28;20471;-71
2023/12/19 06:45:20;;;;;;;6.30;6.20;;;6.80;99.90;;;;;;5042185;28;20467;-70
2023/12/19 06:47:47;;;;;;;6.00;5.90;;;6.80;99.90;;;;;;5058694;28;20459;-70
2023/12/19 06:50:14;;;;;;;6.23;6.13;;;6.80;99.90;;;;;;5068026;28;20506;-71
2023/12/19 06:52:42;;;;;;;6.53;6.43;;;6.70;99.90;;;;;;5059583;28;21049;-72
2023/12/19 06:55:11;;;;;;;6.60;6.50;;;6.80;99.90;;;;;;5063677;28;20467;-71
2023/12/19 06:57:39;;;;;;;6.30;6.20;;;6.80;99.90;;;;;;5060650;28;20463;-71
2023/12/19 07:00:08;;;;;;;6.37;6.27;;;6.80;99.90;;;;;;5062349;28;20459;-71
2023/12/19 07:02:36;;;;;;;6.53;6.43;;;6.80;99.90;;;;;;5055166;28;21030;-72
2023/12/19 07:05:03;;;;;;;6.47;6.37;;;6.80;99.90;;;;;;5058786;28;20544;-71
2023/12/19 07:07:31;;;;;;;7.30;7.20;;;6.70;99.90;;;;;;5065409;28;20830;-71
2023/12/19 07:09:57;;;;;;;7.40;7.30;;;6.90;99.90;;;;;;5064859;28;20451;-71
2023/12/19 07:12:24;;;;;;;7.53;7.43;;;6.90;99.90;;;;;;5058376;28;20474;-71
2023/12/19 07:14:51;;;;;;;7.33;7.23;;;6.90;99.90;;;;;;5067121;28;20471;-71
2023/12/19 07:17:19;;;;;;;7.30;7.20;;;6.80;99.90;;;;;;5062213;28;20451;-71
2023/12/19 07:19:47;;;;;;;7.63;7.53;;;6.80;99.90;;;;;;5067361;28;20525;-72
2023/12/19 07:22:13;;;;;;;7.30;7.20;;;6.80;99.90;;;;;;5059600;28;20923;-71
2023/12/19 07:24:41;;;;;;;7.10;7.00;;;6.80;99.90;;;;;;5051476;28;20582;-71
2023/12/19 07:27:08;;;;;;;6.77;6.67;;;6.80;99.90;;;;;;5067031;28;20571;-72
2023/12/19 07:29:38;;;;;;;7.10;7.00;;;6.70;99.90;;;;;;5067834;28;20790;-71
2023/12/19 07:32:05;;;;;;;6.93;6.83;;;6.80;99.90;;;;;;5054425;28;20547;-71
2023/12/19 07:34:33;;;;;;;6.63;6.53;;;6.80;99.90;;;;;;5064411;28;20524;-71
2023/12/19 07:37:01;;;;;;;6.70;6.60;;;6.80;99.90;;;;;;5064601;28;21051;-71
2023/12/19 07:39:28;;;;;;;6.63;6.53;;;6.80;99.90;;;;;;5057328;28;20545;-72
2023/12/19 07:41:55;;;;;;;7.00;6.90;;;6.90;99.90;;;;;;5070148;28;20826;-70
2023/12/19 07:44:23;;;;;;;6.93;6.83;;;7.00;99.90;;;;;;5064472;28;20468;-71
2023/12/19 07:46:50;;;;;;;6.70;6.60;;;6.90;99.90;;;;;;5063339;28;20921;-71
2023/12/19 07:49:18;;;;;;;6.80;6.70;;;6.90;99.90;;;;;;5066501;28;20462;-71
2023/12/19 07:51:47;;;;;;;6.27;6.17;;;7.00;99.90;;;;;;5068421;28;20450;-72
2023/12/19 07:54:14;;;;;;;6.80;6.70;;;7.00;99.90;;;;;;5071081;28;20459;-71
2023/12/19 07:56:41;;;;;;;7.40;7.30;;;7.10;99.90;;;;;;5063210;28;20463;-72
2023/12/19 07:59:08;;;;;;;6.80;6.70;;;7.10;99.90;;;;;;5070251;28;20486;-72
2023/12/19 08:01:34;;;;;;;6.83;6.73;;;7.10;99.90;;;;;;5081483;28;20507;-71
2023/12/19 08:04:02;;;;;;;6.40;6.30;;;7.20;99.90;;;;;;5064613;28;20551;-72
2023/12/19 08:06:29;;;;;;;6.70;6.60;;;7.20;99.90;;;;;;5059504;28;20480;-72
2023/12/19 08:08:57;;;;;;;6.43;6.33;;;7.20;99.90;;;;;;5063797;28;20463;-72
2023/12/19 08:11:24;;;;;;;7.10;7.00;;;7.20;99.90;;;;;;5069456;28;20455;-71
2023/12/19 08:13:52;;;;;;;7.17;7.07;;;7.30;99.90;;;;;;5070349;28;20450;-72
2023/12/19 08:16:20;;;;;;;7.30;7.20;;;7.30;99.90;;;;;;5063518;28;20471;-72
2023/12/19 08:18:50;;;;;;;7.30;7.20;;;7.30;99.90;;;;;;5067731;28;20464;-72
2023/12/19 08:21:17;;;;;;;7.17;7.07;;;7.30;99.90;;;;;;5053173;28;20613;-71
2023/12/19 08:23:45;;;;;;;7.17;7.07;;;7.30;99.90;;;;;;5067888;28;20490;-71
2023/12/19 08:26:13;;;;;;;7.30;7.20;;;7.30;99.90;;;;;;5063410;28;20529;-71
2023/12/19 08:28:40;;;;;;;7.30;7.20;;;7.40;99.90;;;;;;5063659;28;20467;-72
2023/12/19 08:31:07;;;;;;;7.00;6.90;;;7.50;99.90;;;;;;5057373;28;20871;-72
2023/12/19 08:33:34;;;;;;;7.30;7.20;;;7.60;99.90;;;;;;5061794;28;20938;-71
2023/12/19 08:36:02;;;;;;;7.70;7.60;;;7.60;99.90;;;;;;5066283;28;20464;-71
2023/12/19 08:38:29;;;;;;;7.57;7.47;;;7.70;99.90;;;;;;5062772;28;20954;-72
2023/12/19 08:40:56;;;;;;;8.17;8.07;;;7.80;99.90;;;;;;5060977;28;20538;-72
2023/12/19 08:43:25;;;;;;;7.83;7.73;;;7.70;99.90;;;;;;5065506;28;20965;-72
2023/12/19 08:45:52;;;;;;;7.40;7.30;;;7.70;99.90;;;;;;5063569;28;21138;-72
2023/12/19 08:48:19;;;;;;;7.73;7.63;;;7.80;99.90;;;;;;5068018;28;21001;-71
2023/12/19 08:50:46;;;;;;;8.10;8.00;;;7.80;99.90;;;;;;5069623;28;20487;-71
2023/12/19 08:53:13;;;;;;;7.70;7.60;;;7.80;99.90;;;;;;5063422;28;20487;-71
2023/12/19 08:55:42;;;;;;;7.80;7.70;;;7.80;99.90;;;;;;5065352;28;20964;-71
2023/12/19 08:58:09;;;;;;;8.27;8.17;;;7.80;99.90;;;;;;5063147;28;20455;-72
2023/12/19 09:00:37;;;;;;;8.10;8.00;;;7.80;99.90;;;;;;5062490;28;20468;-71
2023/12/19 09:03:05;;;;;;;8.50;8.40;;;7.90;99.90;;;;;;5067416;28;20810;-71
2023/12/19 09:05:33;;;;;;;8.27;8.17;;;7.90;99.90;;;;;;5061510;28;20548;-71
2023/12/19 09:08:00;;;;;;;8.10;8.00;;;7.90;99.90;;;;;;5047982;28;20456;-71
2023/12/19 09:10:27;;;;;;;8.23;8.13;;;8.00;99.90;;;;;;5065212;28;20455;-71
2023/12/19 09:12:54;;;;;;;8.20;8.10;;;8.00;99.90;;;;;;5059294;28;20651;-71
2023/12/19 09:15:22;;;;;;;8.20;8.10;;;8.00;99.90;;;;;;5068907;28;20490;-71
2023/12/19 09:17:50;;;;;;;8.40;8.30;;;8.00;99.90;;;;;;5068834;28;20443;-71
2023/12/19 09:20:17;;;;;;;8.50;8.40;;;8.10;99.90;;;;;;5063494;28;20489;-71
2023/12/19 09:22:45;;;;;;;8.50;8.40;;;8.20;99.90;;;;;;5061130;28;20479;-71
2023/12/19 09:25:14;;;;;;;8.20;8.10;;;8.20;99.90;;;;;;5060876;28;20493;-71
2023/12/19 09:27:42;;;;;;;8.70;8.60;;;8.30;99.90;;;;;;5066867;28;20545;-71
2023/12/19 09:30:11;;;;;;;8.43;8.33;;;8.20;99.90;;;;;;5068067;28;20526;-71
2023/12/19 09:32:39;;;;;;;8.70;8.60;;;8.20;99.90;;;;;;5068941;28;20487;-71
2023/12/19 09:35:10;;;;;;;8.90;8.70;;;8.30;99.90;;;;;;5063241;28;20456;-71
2023/12/19 09:37:38;;;;;;;8.90;8.70;;;8.40;99.90;;;;;;5064315;28;20459;-70
2023/12/19 09:40:06;;;;;;;9.20;9.00;;;8.40;99.90;;;;;;5058947;28;20460;-71
2023/12/19 09:42:34;;;;;;;9.33;9.13;;;8.40;99.90;;;;;;5056677;28;20463;-71
2023/12/19 09:45:01;;;;;;;8.93;8.73;;;8.40;99.90;;;;;;5066825;28;20447;-71
2023/12/19 09:47:31;;;;;;;9.70;9.50;;;8.50;99.90;;;;;;5059936;28;20849;-73
2023/12/19 09:50:01;;;;;;;9.10;8.90;;;8.50;99.90;;;;;;5055757;28;20459;-70
2023/12/19 09:52:30;;;;;;;9.03;8.83;;;8.50;99.90;;;;;;5058106;28;20460;-69
2023/12/19 09:54:57;;;;;;;10.10;9.90;;;8.50;99.90;;;;;;5050499;28;20467;-70
2023/12/19 09:57:25;;;;;;;9.90;9.70;;;8.50;99.90;;;;;;5051879;28;20544;-71
2023/12/19 09:59:54;;;;;;;10.30;10.10;;;8.50;99.90;;;;;;5056309;28;20463;-73
2023/12/19 10:02:21;;;;;;;10.13;9.93;;;8.60;99.90;;;;;;5058919;28;20468;-69
2023/12/19 10:04:48;;;;;;;10.33;10.13;;;8.60;99.90;;;;;;5056107;28;20463;-71
2023/12/19 10:07:16;;;;;;;10.13;9.93;;;8.60;99.90;;;;;;5054126;28;20499;-72
2023/12/19 10:09:54;;;;;;;10.27;10.07;;;8.70;99.90;;;;;;5053927;28;21253;-73
2023/12/19 10:12:22;;;;;;;10.17;9.97;;;8.70;99.90;;;;;;5058919;28;20455;-69
2023/12/19 10:14:49;;;;;;;10.00;9.80;;;8.70;99.90;;;;;;5055745;28;20451;-72
2023/12/19 10:17:18;;;;;;;10.20;10.00;;;8.70;99.90;;;;;;5056569;28;20485;-68
2023/12/19 10:19:45;;;;;;;10.30;10.10;;;8.70;99.90;;;;;;5051004;28;20586;-71
2023/12/19 10:22:15;;;;;;;10.33;10.13;;;8.80;99.90;;;;;;5055401;28;20509;-71
2023/12/19 10:24:41;;;;;;;10.80;10.50;;;8.80;99.90;;;;;;5055555;28;20483;-70
2023/12/19 10:27:10;;;;;;;10.63;10.40;;;8.90;99.90;;;;;;5053435;28;20498;-70
2023/12/19 10:29:38;;;;;;;11.10;10.80;;;8.70;99.90;;;;;;5056460;28;20467;-73
2023/12/19 10:32:19;;;;;;;10.90;10.60;;;8.80;99.90;;;;;;5050325;28;20492;-71
2023/12/19 10:34:47;;;;;;;10.70;10.40;;;8.80;99.90;;;;;;5053816;28;20463;-72
2023/12/19 10:37:17;;;;;;;11.93;11.63;;;8.90;99.90;;;;;;5054938;28;20522;-69
2023/12/19 10:39:45;;;;;;;12.20;11.80;;;8.80;99.90;;;;;;5057484;28;20547;-69
2023/12/19 10:42:13;;;;;;;11.80;11.50;;;9.00;99.90;;;;;;5057410;28;20461;-72
2023/12/19 10:44:41;;;;;;;11.80;11.50;;;8.90;99.90;;;;;;5059010;28;20470;-71
2023/12/19 10:47:09;;;;;;;11.90;11.60;;;8.90;99.90;;;;;;5060044;28;20574;-71
2023/12/19 10:49:36;;;;;;;11.47;11.17;;;8.90;99.90;;;;;;5063988;28;20455;-71
2023/12/19 10:52:06;;;;;;;11.60;11.30;;;8.80;99.90;;;;;;5065326;28;20945;-70
2023/12/19 10:54:36;;;;;;;11.40;11.10;;;8.80;99.90;;;;;;5060952;28;20576;-71
2023/12/19 10:57:06;;;;;;;11.70;11.40;;;8.70;99.90;;;;;;5058272;28;20503;-71
2023/12/19 10:59:45;;;;;;;11.40;11.10;;;8.70;99.90;;;;;;5055224;28;20537;-71
2023/12/19 11:02:21;;;;;;;11.10;10.80;;;8.70;99.90;;;;;;5063830;28;20579;-72
2023/12/19 11:05:09;;;;;;;10.90;10.60;;;8.60;99.90;;;;;;5062952;28;20981;-70
2023/12/19 11:07:38;;;;;;;10.80;10.50;;;8.60;99.90;;;;;;5063340;28;20491;-72
2023/12/19 11:10:09;;;;;;;11.00;10.70;;;8.60;99.90;;;;;;5063690;28;20451;-72
2023/12/19 11:12:37;;;;;;;10.60;10.30;;;8.40;99.90;;;;;;5044661;28;20459;-73
2023/12/19 11:15:06;;;;;;;9.90;9.70;;;8.30;99.90;;;;;;5067966;28;20544;-70
2023/12/19 11:17:45;;;;;;;9.87;9.67;;;8.20;99.90;;;;;;5059621;28;20468;-72
2023/12/19 11:20:17;;;;;;;9.97;9.77;;;8.10;99.90;;;;;;5069647;28;20575;-70
2023/12/19 11:23:01;;;;;;;10.57;10.27;;;8.00;99.90;;;;;;5062180;28;20555;-71
2023/12/19 11:25:32;;;;;;;10.40;10.10;;;8.00;99.90;;;;;;5065277;28;20958;-69
2023/12/19 11:28:02;;;;;;;9.90;9.70;;;7.90;99.90;;;;;;5059593;28;20493;-71
2023/12/19 11:30:35;;;;;;;9.60;9.40;;;7.80;99.90;;;;;;5068305;28;20458;-70
2023/12/19 11:33:02;;;;;;;9.53;9.33;;;7.80;99.90;;;;;;5067700;28;20497;-70
2023/12/19 11:35:30;;;;;;;9.70;9.50;;;7.80;99.90;;;;;;5069660;28;20459;-71
2023/12/19 11:38:24;;;;;;;9.47;9.27;;;7.70;99.90;;;;;;5068057;28;20868;-70
2023/12/19 11:40:52;;;;;;;9.70;9.50;;;7.70;99.90;;;;;;5067664;28;21080;-71
2023/12/19 11:43:55;;;;;;;10.60;10.30;;;7.70;99.90;;;;;;5061252;28;21095;-71
2023/12/19 11:46:25;;;;;;;10.80;10.50;;;7.70;99.90;;;;;;5069720;28;20799;-71
2023/12/19 11:48:55;;;;;;;11.03;10.73;;;7.80;99.90;;;;;;5063759;28;21211;-71
2023/12/19 11:51:50;;;;;;;11.40;11.10;;;7.80;99.90;;;;;;5065659;28;20933;-70
2023/12/19 11:54:17;;;;;;;11.30;11.00;;;7.60;99.90;;;;;;5066935;28;20936;-71
2023/12/19 11:56:44;;;;;;;11.53;11.23;;;7.60;99.90;;;;;;5063917;28;20458;-70
2023/12/19 11:59:13;;;;;;;11.27;10.97;;;7.60;99.90;;;;;;5061629;28;20462;-71
2023/12/19 12:01:43;;;;;;;10.70;10.40;;;7.70;99.90;;;;;;5069229;28;20962;-71
2023/12/19 12:04:11;;;;;;;11.03;10.73;;;7.60;99.90;;;;;;5069835;28;20538;-70
2023/12/19 12:06:39;;;;;;;11.40;11.10;;;7.60;99.90;;;;;;5065786;28;20454;-70
2023/12/19 12:09:07;;;;;;;11.07;10.77;;;7.70;99.90;;;;;;5066796;28;20854;-70
2023/12/19 12:11:52;;;;;;;11.10;10.80;;;7.70;99.90;;;;;;5069142;28;20439;-71
2023/12/19 12:14:19;;;;;;;11.43;11.13;;;7.70;99.90;;;;;;5062583;28;20965;-70
2023/12/19 12:16:47;;;;;;;11.37;11.07;;;7.70;99.90;;;;;;5067888;28;20509;-70
2023/12/19 12:19:15;;;;;;;12.00;11.60;;;7.70;99.90;;;;;;5060861;28;20860;-70
2023/12/19 12:21:46;;;;;;;11.77;11.37;;;7.80;99.90;;;;;;5064750;28;20942;-70
2023/12/19 12:24:21;;;;;;;11.47;11.17;;;7.70;99.90;;;;;;5066995;28;20484;-71
2023/12/19 12:26:49;;;;;;;11.50;11.20;;;7.80;99.90;;;;;;5063621;28;20465;-70
2023/12/19 12:29:17;;;;;;;11.17;10.87;;;7.80;99.90;;;;;;5066216;28;20460;-71
2023/12/19 12:31:47;;;;;;;10.70;10.40;;;7.80;99.90;;;;;;5063670;28;20633;-70
2023/12/19 12:34:14;;;;;;;10.70;10.40;;;7.80;99.90;;;;;;5063533;28;20547;-71
2023/12/19 12:36:42;;;;;;;10.40;10.10;;;7.80;99.90;;;;;;5067463;28;20458;-70
2023/12/19 12:39:10;;;;;;;10.33;10.03;;;7.80;99.90;;;;;;5061534;28;21144;-71
2023/12/19 12:41:39;;;;;;;9.70;9.50;;;7.80;99.90;;;;;;5055388;28;20543;-70
2023/12/19 12:44:12;;;;;;;9.70;9.50;;;7.80;99.90;;;;;;5055842;28;20471;-72
2023/12/19 12:46:45;;;;;;;9.60;9.40;;;7.80;99.90;;;;;;5067704;28;20494;-71
2023/12/19 12:49:18;;;;;;;9.60;9.40;;;7.80;99.90;;;;;;5049333;28;20562;-69
2023/12/19 12:51:45;;;;;;;9.87;9.67;;;7.80;99.90;;;;;;5065174;28;20467;-72
2023/12/19 12:54:17;;;;;;;9.50;9.30;;;7.80;99.90;;;;;;5066482;28;20460;-71
2023/12/19 12:56:45;;;;;;;9.10;8.90;;;7.70;99.90;;;;;;5060032;28;20455;-71
2023/12/19 12:59:14;;;;;;;9.23;9.03;;;7.70;99.90;;;;;;5059482;28;20869;-70